createdAt,value
2018-07-23T00:00:37.689Z,25.41
2018-07-23T00:01:37.711Z,25.44
2018-07-23T00:02:37.667Z,25.51
2018-07-23T00:03:48.000Z,25.39
2018-07-23T00:04:37.877Z,25.39
2018-07-23T00:05:37.709Z,25.46
2018-07-23T00:06:37.784Z,25.48
2018-07-23T00:07:37.762Z,25.4
2018-07-23T00:08:37.835Z,25.41
2018-07-23T00:09:37.729Z,25.44
2018-07-23T00:10:37.775Z,25.43
2018-07-23T00:11:37.793Z,25.46
2018-07-23T00:12:37.713Z,25.44
2018-07-23T00:13:37.802Z,25.54
2018-07-23T00:14:37.771Z,25.49
2018-07-23T00:15:37.854Z,25.49
2018-07-23T00:16:37.774Z,25.51
2018-07-23T00:17:37.784Z,25.49
2018-07-23T00:18:37.685Z,25.46
2018-07-23T00:19:37.767Z,25.43
2018-07-23T00:20:37.810Z,25.43
2018-07-23T00:21:37.763Z,25.4
2018-07-23T00:22:37.638Z,25.51
2018-07-23T00:23:37.649Z,25.49
2018-07-23T00:24:37.633Z,25.44
2018-07-23T00:25:37.733Z,25.39
2018-07-23T00:26:37.676Z,25.43
2018-07-23T00:27:37.643Z,25.46
2018-07-23T00:28:37.650Z,25.4
2018-07-23T00:29:37.664Z,25.44
2018-07-23T00:30:37.664Z,25.44
2018-07-23T00:31:37.603Z,25.49
2018-07-23T00:32:37.636Z,25.41
2018-07-23T00:33:37.680Z,25.51
2018-07-23T00:34:37.680Z,25.4
2018-07-23T00:35:37.687Z,25.43
2018-07-23T00:36:37.797Z,25.41
2018-07-23T00:37:37.818Z,25.44
2018-07-23T00:38:37.879Z,25.48
2018-07-23T00:39:37.804Z,25.48
2018-07-23T00:40:37.754Z,25.46
2018-07-23T00:41:37.783Z,25.49
2018-07-23T00:42:37.960Z,25.44
2018-07-23T00:43:37.848Z,25.44
2018-07-23T00:44:37.911Z,25.48
2018-07-23T00:45:37.853Z,25.52
2018-07-23T00:46:37.861Z,25.49
2018-07-23T00:47:37.851Z,25.48
2018-07-23T00:48:37.895Z,25.36
2018-07-23T00:49:37.764Z,25.51
2018-07-23T00:50:37.843Z,25.54
2018-07-23T00:51:37.828Z,25.49
2018-07-23T00:52:37.945Z,25.51
2018-07-23T00:53:37.915Z,25.44
2018-07-23T00:54:37.798Z,25.41
2018-07-23T00:55:37.796Z,25.52
2018-07-23T00:56:37.838Z,25.43
2018-07-23T00:57:37.802Z,25.46
2018-07-23T00:58:37.778Z,25.54
2018-07-23T00:59:37.761Z,25.49
2018-07-23T01:00:37.826Z,25.46
2018-07-23T01:01:37.902Z,25.43
2018-07-23T01:02:37.849Z,25.41
2018-07-23T01:03:37.833Z,25.46
2018-07-23T01:04:37.792Z,25.44
2018-07-23T01:05:37.800Z,25.46
2018-07-23T01:06:37.793Z,25.49
2018-07-23T01:07:37.861Z,25.46
2018-07-23T01:08:37.807Z,25.49
2018-07-23T01:09:37.777Z,25.41
2018-07-23T01:10:37.810Z,25.41
2018-07-23T01:11:37.827Z,25.49
2018-07-23T01:12:37.834Z,25.43
2018-07-23T01:13:37.875Z,25.41
2018-07-23T01:14:37.816Z,25.49
2018-07-23T01:15:37.869Z,25.43
2018-07-23T01:16:37.837Z,25.49
2018-07-23T01:17:37.833Z,25.43
2018-07-23T01:18:37.868Z,25.41
2018-07-23T01:19:37.857Z,25.48
2018-07-23T01:20:37.870Z,25.44
2018-07-23T01:21:37.838Z,25.41
2018-07-23T01:22:37.841Z,25.4
2018-07-23T01:23:37.814Z,25.43
2018-07-23T01:24:37.854Z,25.44
2018-07-23T01:25:37.887Z,25.41
2018-07-23T01:26:37.936Z,25.46
2018-07-23T01:27:37.887Z,25.4
2018-07-23T01:28:37.826Z,25.41
2018-07-23T01:29:37.807Z,25.4
2018-07-23T01:30:37.841Z,25.49
2018-07-23T01:31:37.881Z,25.44
2018-07-23T01:32:37.908Z,25.49
2018-07-23T01:33:37.929Z,25.48
2018-07-23T01:34:37.848Z,25.43
2018-07-23T01:36:42.470Z,25.4
2018-07-23T01:36:54.866Z,25.44
2018-07-23T01:37:54.791Z,25.43
2018-07-23T01:38:54.773Z,25.49
2018-07-23T01:39:54.912Z,25.43
2018-07-23T01:40:54.743Z,25.41
2018-07-23T01:41:54.858Z,25.41
2018-07-23T01:42:54.804Z,25.4
2018-07-23T01:43:54.803Z,25.41
2018-07-23T01:44:54.807Z,25.46
2018-07-23T01:45:54.856Z,25.44
2018-07-23T01:46:54.863Z,25.46
2018-07-23T01:47:54.833Z,25.44
2018-07-23T01:48:54.830Z,25.43
2018-07-23T01:49:54.895Z,25.46
2018-07-23T01:50:54.787Z,25.51
2018-07-23T01:51:54.803Z,25.43
2018-07-23T01:52:54.848Z,25.43
2018-07-23T01:53:54.906Z,25.43
2018-07-23T01:54:54.994Z,25.46
2018-07-23T01:55:54.888Z,25.46
2018-07-23T01:56:55.201Z,25.43
2018-07-23T01:57:54.885Z,25.41
2018-07-23T01:58:54.951Z,25.43
2018-07-23T01:59:54.972Z,25.43
2018-07-23T02:00:54.986Z,25.4
2018-07-23T02:01:55.043Z,25.4
2018-07-23T02:02:54.994Z,25.4
2018-07-23T02:03:54.973Z,25.41
2018-07-23T02:04:54.979Z,25.4
2018-07-23T02:05:54.989Z,25.49
2018-07-23T02:06:55.005Z,25.44
2018-07-23T02:07:54.857Z,25.41
2018-07-23T02:08:55.007Z,25.44
2018-07-23T02:09:55.015Z,25.46
2018-07-23T02:10:54.825Z,25.44
2018-07-23T02:11:54.869Z,25.41
2018-07-23T02:12:54.878Z,25.39
2018-07-23T02:13:55.811Z,25.44
2018-07-23T02:14:55.319Z,25.46
2018-07-23T02:15:54.931Z,25.48
2018-07-23T02:16:54.918Z,25.46
2018-07-23T02:17:54.849Z,25.49
2018-07-23T02:18:54.930Z,25.43
2018-07-23T02:19:54.903Z,25.43
2018-07-23T02:20:54.942Z,25.44
2018-07-23T02:21:55.025Z,25.49
2018-07-23T02:22:55.428Z,25.43
2018-07-23T02:23:54.896Z,25.46
2018-07-23T02:24:54.891Z,25.43
2018-07-23T02:25:54.895Z,25.43
2018-07-23T02:26:54.953Z,25.41
2018-07-23T02:27:54.928Z,25.46
2018-07-23T02:28:54.958Z,25.46
2018-07-23T02:29:54.797Z,25.46
2018-07-23T02:30:54.872Z,25.41
2018-07-23T02:31:54.866Z,25.41
2018-07-23T02:32:54.917Z,25.41
2018-07-23T02:33:54.921Z,25.41
2018-07-23T02:34:54.949Z,25.43
2018-07-23T02:35:54.959Z,25.46
2018-07-23T02:36:54.843Z,25.43
2018-07-23T02:37:54.889Z,25.46
2018-07-23T02:38:54.893Z,25.48
2018-07-23T02:39:54.924Z,25.41
2018-07-23T02:40:54.887Z,25.41
2018-07-23T02:41:54.868Z,25.44
2018-07-23T02:42:54.920Z,25.41
2018-07-23T02:43:54.885Z,25.52
2018-07-23T02:44:54.847Z,25.44
2018-07-23T02:45:54.889Z,25.44
2018-07-23T02:46:54.905Z,25.46
2018-07-23T02:47:55.080Z,25.46
2018-07-23T02:48:54.851Z,25.44
2018-07-23T02:49:54.999Z,25.4
2018-07-23T02:50:54.871Z,25.48
2018-07-23T02:51:54.929Z,25.44
2018-07-23T02:52:54.920Z,25.4
2018-07-23T02:53:54.939Z,25.46
2018-07-23T02:54:54.958Z,25.44
2018-07-23T02:55:54.939Z,25.48
2018-07-23T02:56:54.936Z,25.46
2018-07-23T02:57:55.021Z,25.44
2018-07-23T02:58:55.020Z,25.4
2018-07-23T02:59:54.982Z,25.46
2018-07-23T03:00:54.915Z,25.43
2018-07-23T03:01:54.926Z,25.46
2018-07-23T03:02:54.978Z,25.43
2018-07-23T03:03:54.984Z,25.4
2018-07-23T03:04:54.973Z,25.41
2018-07-23T03:05:54.983Z,25.41
2018-07-23T03:06:54.447Z,25.43
2018-07-23T03:07:55.009Z,25.46
2018-07-23T03:08:54.944Z,25.44
2018-07-23T03:09:54.952Z,25.54
2018-07-23T03:10:54.985Z,25.41
2018-07-23T03:11:54.953Z,25.49
2018-07-23T03:12:55.013Z,25.46
2018-07-23T03:13:54.970Z,25.43
2018-07-23T03:14:55.026Z,25.46
2018-07-23T03:15:55.034Z,25.44
2018-07-23T03:16:55.132Z,25.44
2018-07-23T03:17:54.989Z,25.44
2018-07-23T03:18:55.078Z,25.44
2018-07-23T03:19:54.939Z,25.49
2018-07-23T03:20:55.019Z,25.43
2018-07-23T03:21:55.158Z,25.48
2018-07-23T03:22:55.010Z,25.39
2018-07-23T03:23:54.995Z,25.46
2018-07-23T03:24:54.985Z,25.46
2018-07-23T03:25:55.026Z,25.46
2018-07-23T03:26:54.996Z,25.54
2018-07-23T03:27:54.972Z,25.44
2018-07-23T03:28:55.030Z,25.51
2018-07-23T03:29:54.999Z,25.44
2018-07-23T03:30:54.938Z,25.48
2018-07-23T03:31:54.969Z,25.43
2018-07-23T03:32:54.996Z,25.43
2018-07-23T03:33:54.965Z,25.41
2018-07-23T03:34:55.169Z,25.44
2018-07-23T03:35:55.150Z,25.44
2018-07-23T03:36:55.226Z,25.4
2018-07-23T03:37:55.232Z,25.43
2018-07-23T03:38:55.272Z,25.4
2018-07-23T03:39:55.241Z,25.41
2018-07-23T03:40:55.013Z,25.43
2018-07-23T03:41:55.184Z,25.4
2018-07-23T03:42:55.243Z,25.44
2018-07-23T03:43:55.142Z,25.43
2018-07-23T03:44:55.040Z,25.41
2018-07-23T03:45:55.023Z,25.43
2018-07-23T03:46:55.117Z,25.39
2018-07-23T03:47:54.984Z,25.41
2018-07-23T03:48:55.121Z,25.44
2018-07-23T03:49:54.958Z,25.44
2018-07-23T03:50:55.237Z,25.44
2018-07-23T03:51:54.982Z,25.52
2018-07-23T03:52:56.180Z,25.4
2018-07-23T03:53:54.979Z,25.46
2018-07-23T03:54:55.000Z,25.41
2018-07-23T03:55:55.038Z,25.49
2018-07-23T03:56:55.122Z,25.44
2018-07-23T03:57:55.055Z,25.51
2018-07-23T03:58:55.026Z,25.46
2018-07-23T03:59:55.033Z,25.46
2018-07-23T04:00:55.032Z,25.41
2018-07-23T04:01:55.034Z,25.48
2018-07-23T04:02:55.081Z,25.49
2018-07-23T04:03:55.056Z,25.43
2018-07-23T04:04:55.025Z,25.43
2018-07-23T04:05:55.074Z,25.44
2018-07-23T04:06:55.039Z,25.46
2018-07-23T04:07:55.116Z,25.52
2018-07-23T04:08:55.018Z,25.54
2018-07-23T04:09:55.163Z,25.43
2018-07-23T04:10:55.236Z,25.4
2018-07-23T04:11:55.041Z,25.48
2018-07-23T04:12:55.096Z,25.41
2018-07-23T04:13:55.104Z,25.46
2018-07-23T04:14:55.036Z,25.41
2018-07-23T04:15:55.174Z,25.49
2018-07-23T04:16:55.188Z,25.43
2018-07-23T04:17:55.486Z,25.54
2018-07-23T04:22:27.055Z,25.51
2018-07-23T04:23:26.415Z,25.46
2018-07-23T04:24:26.331Z,25.46
2018-07-23T04:25:26.324Z,25.51
2018-07-23T04:26:26.407Z,25.41
2018-07-23T04:27:26.374Z,25.56
2018-07-23T04:28:26.427Z,25.44
2018-07-23T04:29:26.357Z,25.51
2018-07-23T04:30:26.360Z,25.54
2018-07-23T04:31:26.371Z,25.54
2018-07-23T04:32:26.585Z,25.61
2018-07-23T04:33:26.355Z,25.54
2018-07-23T04:34:26.357Z,25.56
2018-07-23T04:35:26.409Z,25.51
2018-07-23T04:36:26.391Z,25.56
2018-07-23T04:37:26.384Z,25.61
2018-07-23T04:38:26.420Z,25.56
2018-07-23T04:39:27.022Z,25.49
2018-07-23T04:40:26.381Z,25.54
2018-07-23T04:41:26.387Z,25.55
2018-07-23T04:42:26.536Z,25.55
2018-07-23T04:43:27.514Z,25.61
2018-07-23T04:44:26.378Z,25.54
2018-07-23T04:45:26.396Z,25.58
2018-07-23T04:46:26.455Z,25.54
2018-07-23T04:47:26.390Z,25.52
2018-07-23T04:48:26.401Z,25.52
2018-07-23T04:49:26.522Z,25.52
2018-07-23T04:50:26.416Z,25.51
2018-07-23T04:51:26.396Z,25.52
2018-07-23T04:52:26.530Z,25.58
2018-07-23T04:53:26.438Z,25.61
2018-07-23T04:54:26.545Z,25.48
2018-07-23T04:55:26.378Z,25.56
2018-07-23T04:56:26.426Z,25.59
2018-07-23T04:57:26.441Z,25.55
2018-07-23T04:58:26.396Z,25.51
2018-07-23T04:59:26.469Z,25.52
2018-07-23T05:00:26.427Z,25.44
2018-07-23T05:01:26.474Z,25.52
2018-07-23T05:02:26.457Z,25.52
2018-07-23T05:03:26.462Z,25.56
2018-07-23T05:04:26.434Z,25.51
2018-07-23T05:05:26.427Z,25.51
2018-07-23T05:06:26.413Z,25.51
2018-07-23T05:07:26.418Z,25.41
2018-07-23T05:08:26.529Z,25.41
2018-07-23T05:09:26.485Z,25.44
2018-07-23T05:10:27.114Z,25.44
2018-07-23T05:11:26.524Z,25.48
2018-07-23T05:12:26.829Z,25.51
2018-07-23T05:15:29.025Z,25.46
2018-07-23T05:16:07.305Z,25.49
2018-07-23T05:17:07.184Z,25.56
2018-07-23T05:18:07.216Z,25.56
2018-07-23T05:19:07.710Z,25.48
2018-07-23T05:20:07.432Z,25.43
2018-07-23T05:21:07.417Z,25.51
2018-07-23T05:22:07.200Z,25.43
2018-07-23T05:27:26.414Z,25.49
2018-07-23T05:27:38.852Z,25.55
2018-07-23T05:29:58.592Z,25.51
2018-07-23T05:30:58.589Z,25.48
2018-07-23T05:31:58.681Z,25.44
2018-07-23T05:32:58.538Z,25.44
2018-07-23T05:33:58.572Z,25.43
2018-07-23T05:34:58.579Z,25.43
2018-07-23T05:35:58.642Z,25.51
2018-07-23T05:36:58.702Z,25.4
2018-07-23T05:37:58.573Z,25.43
2018-07-23T05:38:58.577Z,25.52
2018-07-23T05:39:58.626Z,25.4
2018-07-23T05:40:58.557Z,25.4
2018-07-23T05:41:58.635Z,25.4
2018-07-23T05:42:58.638Z,25.37
2018-07-23T05:43:58.648Z,25.44
2018-07-23T05:44:58.813Z,25.37
2018-07-23T05:45:58.588Z,25.41
2018-07-23T05:46:58.705Z,25.44
2018-07-23T05:47:58.733Z,25.4
2018-07-23T05:48:58.777Z,25.41
2018-07-23T05:49:58.743Z,25.41
2018-07-23T05:50:58.758Z,25.44
2018-07-23T05:51:58.702Z,25.41
2018-07-23T05:52:58.718Z,25.41
2018-07-23T05:53:58.680Z,25.41
2018-07-23T05:54:58.733Z,25.39
2018-07-23T05:55:58.763Z,25.4
2018-07-23T05:56:58.721Z,25.39
2018-07-23T05:57:58.696Z,25.43
2018-07-23T05:58:59.014Z,25.34
2018-07-23T05:59:58.814Z,25.41
2018-07-23T06:00:58.822Z,25.33
2018-07-23T06:01:58.661Z,25.41
2018-07-23T06:02:58.794Z,25.41
2018-07-23T06:03:58.665Z,25.37
2018-07-23T06:04:58.742Z,25.37
2018-07-23T06:05:58.710Z,25.41
2018-07-23T06:06:58.876Z,25.37
2018-07-23T06:07:58.664Z,25.41
2018-07-23T06:08:58.598Z,25.43
2018-07-23T06:09:58.750Z,25.37
2018-07-23T06:10:58.644Z,25.39
2018-07-23T06:11:58.776Z,25.39
2018-07-23T06:12:58.696Z,25.39
2018-07-23T06:13:58.742Z,25.34
2018-07-23T06:14:58.660Z,25.3
2018-07-23T06:15:58.865Z,25.43
2018-07-23T06:16:58.731Z,25.41
2018-07-23T06:17:58.760Z,25.33
2018-07-23T06:18:58.734Z,25.25
2018-07-23T06:19:58.682Z,25.41
2018-07-23T06:20:58.675Z,25.31
2018-07-23T06:21:58.723Z,25.43
2018-07-23T06:22:58.835Z,25.34
2018-07-23T06:23:58.701Z,25.26
2018-07-23T06:24:58.817Z,25.34
2018-07-23T06:25:58.778Z,25.26
2018-07-23T06:26:58.684Z,25.3
2018-07-23T06:27:58.730Z,25.33
2018-07-23T06:28:58.732Z,25.26
2018-07-23T06:29:58.957Z,25.26
2018-07-23T06:30:58.791Z,25.37
2018-07-23T06:31:58.886Z,25.3
2018-07-23T06:32:58.823Z,25.39
2018-07-23T06:33:58.762Z,25.46
2018-07-23T06:34:58.786Z,25.34
2018-07-23T06:35:58.744Z,25.37
2018-07-23T06:36:58.825Z,25.34
2018-07-23T06:37:58.684Z,25.26
2018-07-23T06:38:58.652Z,25.33
2018-07-23T06:39:58.763Z,25.31
2018-07-23T06:40:58.774Z,25.39
2018-07-23T06:41:58.692Z,25.33
2018-07-23T06:42:58.750Z,25.33
2018-07-23T06:43:58.720Z,25.3
2018-07-23T06:44:58.856Z,25.37
2018-07-23T06:45:58.880Z,25.31
2018-07-23T06:46:58.655Z,25.29
2018-07-23T06:47:58.694Z,25.36
2018-07-23T06:48:58.712Z,25.34
2018-07-23T06:49:58.802Z,25.33
2018-07-23T06:50:58.815Z,25.26
2018-07-23T06:51:58.780Z,25.25
2018-07-23T06:52:58.809Z,25.31
2018-07-23T06:53:59.026Z,25.37
2018-07-23T06:54:58.700Z,25.37
2018-07-23T06:55:59.460Z,25.36
2018-07-23T06:56:58.772Z,25.36
2018-07-23T06:57:58.726Z,25.33
2018-07-23T06:58:58.841Z,25.34
2018-07-23T06:59:58.695Z,25.34
2018-07-23T07:00:58.697Z,25.3
2018-07-23T07:01:58.806Z,25.34
2018-07-23T07:02:58.859Z,25.31
2018-07-23T07:03:58.753Z,25.4
2018-07-23T07:04:58.801Z,25.31
2018-07-23T07:05:58.804Z,25.31
2018-07-23T07:06:58.747Z,25.26
2018-07-23T07:07:58.753Z,25.37
2018-07-23T07:08:58.891Z,25.4
2018-07-23T07:09:58.722Z,25.31
2018-07-23T07:10:58.939Z,25.36
2018-07-23T07:11:58.852Z,25.3
2018-07-23T07:12:58.745Z,25.39
2018-07-23T07:13:58.796Z,25.36
2018-07-23T07:14:58.870Z,25.31
2018-07-23T07:15:58.808Z,25.37
2018-07-23T07:16:58.844Z,25.39
2018-07-23T07:17:58.820Z,25.33
2018-07-23T07:18:58.760Z,25.34
2018-07-23T07:19:58.978Z,25.31
2018-07-23T07:20:58.836Z,25.31
2018-07-23T07:21:58.822Z,25.31
2018-07-23T07:22:58.847Z,25.3
2018-07-23T07:23:58.865Z,25.34
2018-07-23T07:24:58.826Z,25.29
2018-07-23T07:25:58.802Z,25.36
2018-07-23T07:26:58.955Z,25.34
2018-07-23T07:27:58.878Z,25.3
2018-07-23T07:28:58.893Z,25.39
2018-07-23T07:29:58.803Z,25.37
2018-07-23T07:30:58.865Z,25.3
2018-07-23T07:31:58.964Z,25.31
2018-07-23T07:32:58.810Z,25.39
2018-07-23T07:33:58.816Z,25.31
2018-07-23T07:34:59.004Z,25.31
2018-07-23T07:35:58.941Z,25.31
2018-07-23T07:36:58.983Z,25.37
2018-07-23T07:37:59.076Z,25.3
2018-07-23T07:38:58.849Z,25.36
2018-07-23T07:39:58.862Z,25.33
2018-07-23T07:40:58.893Z,25.3
2018-07-23T07:41:58.943Z,25.37
2018-07-23T07:42:58.811Z,25.33
2018-07-23T07:43:58.862Z,25.36
2018-07-23T07:44:58.917Z,25.31
2018-07-23T07:45:58.907Z,25.34
2018-07-23T07:46:58.983Z,25.31
2018-07-23T07:47:59.026Z,25.39
2018-07-23T07:48:58.787Z,25.41
2018-07-23T07:49:58.867Z,25.31
2018-07-23T07:50:58.887Z,25.39
2018-07-23T07:51:58.874Z,25.34
2018-07-23T07:52:58.838Z,25.39
2018-07-23T07:53:58.852Z,25.33
2018-07-23T07:54:58.912Z,25.31
2018-07-23T07:55:58.865Z,25.31
2018-07-23T07:56:58.804Z,25.31
2018-07-23T07:57:58.916Z,25.33
2018-07-23T07:58:58.847Z,25.3
2018-07-23T07:59:58.795Z,25.3
2018-07-23T08:00:58.884Z,25.31
2018-07-23T08:01:58.862Z,25.34
2018-07-23T08:02:58.935Z,25.34
2018-07-23T08:03:58.844Z,25.3
2018-07-23T08:04:59.026Z,25.36
2018-07-23T08:05:58.981Z,25.39
2018-07-23T08:06:58.851Z,25.33
2018-07-23T08:07:58.908Z,25.39
2018-07-23T08:08:58.926Z,25.33
2018-07-23T08:09:58.873Z,25.26
2018-07-23T08:10:58.914Z,25.31
2018-07-23T08:11:58.983Z,25.26
2018-07-23T08:12:58.967Z,25.26
2018-07-23T08:13:58.916Z,25.31
2018-07-23T08:14:58.872Z,25.34
2018-07-23T08:15:58.926Z,25.33
2018-07-23T08:16:58.819Z,25.24
2018-07-23T08:17:59.119Z,25.34
2018-07-23T08:18:58.972Z,25.25
2018-07-23T08:19:59.007Z,25.34
2018-07-23T08:20:58.997Z,25.3
2018-07-23T08:21:58.864Z,25.31
2018-07-23T08:22:58.873Z,25.37
2018-07-23T08:23:58.977Z,25.29
2018-07-23T08:24:58.930Z,25.43
2018-07-23T08:25:58.994Z,25.34
2018-07-23T08:26:58.914Z,25.34
2018-07-23T08:27:58.988Z,25.31
2018-07-23T08:28:58.912Z,25.4
2018-07-23T08:29:58.906Z,25.33
2018-07-23T08:30:58.922Z,25.33
2018-07-23T08:31:59.112Z,25.39
2018-07-23T08:32:59.001Z,25.34
2018-07-23T08:33:58.879Z,25.3
2018-07-23T08:34:58.847Z,25.3
2018-07-23T08:35:58.889Z,25.24
2018-07-23T08:36:58.948Z,25.25
2018-07-23T08:37:58.995Z,25.3
2018-07-23T08:38:59.000Z,25.34
2018-07-23T08:39:58.969Z,25.33
2018-07-23T08:40:59.111Z,25.29
2018-07-23T08:41:59.151Z,25.37
2018-07-23T08:42:59.014Z,25.24
2018-07-23T08:43:58.897Z,25.25
2018-07-23T08:44:59.015Z,25.34
2018-07-23T08:45:58.943Z,25.25
2018-07-23T08:46:58.977Z,25.33
2018-07-23T08:47:58.988Z,25.33
2018-07-23T08:48:58.982Z,25.3
2018-07-23T08:49:58.913Z,25.34
2018-07-23T08:50:59.115Z,25.25
2018-07-23T08:51:58.915Z,25.36
2018-07-23T08:52:58.991Z,25.37
2018-07-23T08:53:59.052Z,25.39
2018-07-23T08:54:58.912Z,25.33
2018-07-23T08:55:58.966Z,25.36
2018-07-23T08:56:58.988Z,25.3
2018-07-23T08:57:59.014Z,25.3
2018-07-23T08:58:58.970Z,25.39
2018-07-23T08:59:58.966Z,25.26
2018-07-23T09:00:59.048Z,25.25
2018-07-23T09:04:06.459Z,25.31
2018-07-23T09:04:19.368Z,25.34
2018-07-23T09:05:18.973Z,25.39
2018-07-23T09:06:18.985Z,25.26
2018-07-23T09:07:36.317Z,25.26
2018-07-23T09:08:36.219Z,25.37
2018-07-23T09:09:36.313Z,25.3
2018-07-23T09:10:36.101Z,25.22
2018-07-23T09:11:35.941Z,25.31
2018-07-23T09:12:35.968Z,25.3
2018-07-23T09:13:35.947Z,25.31
2018-07-23T09:14:36.019Z,25.37
2018-07-23T09:15:36.040Z,25.37
2018-07-23T09:16:35.993Z,25.26
2018-07-23T09:17:35.975Z,25.31
2018-07-23T09:18:36.023Z,25.29
2018-07-23T09:19:36.334Z,25.33
2018-07-23T09:20:35.999Z,25.33
2018-07-23T09:21:36.003Z,25.3
2018-07-23T09:22:35.967Z,25.34
2018-07-23T09:23:35.977Z,25.37
2018-07-23T09:24:35.895Z,25.31
2018-07-23T09:25:35.985Z,25.29
2018-07-23T09:26:35.938Z,25.33
2018-07-23T09:27:36.043Z,25.24
2018-07-23T09:28:36.087Z,25.31
2018-07-23T09:29:36.019Z,25.3
2018-07-23T09:30:36.059Z,25.29
2018-07-23T09:31:36.037Z,25.26
2018-07-23T09:32:36.037Z,25.24
2018-07-23T09:33:36.041Z,25.3
2018-07-23T09:34:36.052Z,25.3
2018-07-23T09:35:36.028Z,25.3
2018-07-23T09:36:36.091Z,25.24
2018-07-23T09:37:36.016Z,25.26
2018-07-23T09:38:36.911Z,25.31
2018-07-23T09:39:35.977Z,25.36
2018-07-23T09:40:36.054Z,25.26
2018-07-23T09:41:36.012Z,25.3
2018-07-23T09:42:36.066Z,25.33
2018-07-23T09:43:35.968Z,25.29
2018-07-23T09:44:36.121Z,25.3
2018-07-23T09:45:36.119Z,25.33
2018-07-23T09:46:36.054Z,25.31
2018-07-23T09:47:36.412Z,25.19
2018-07-23T09:48:36.121Z,25.21
2018-07-23T09:49:35.985Z,25.24
2018-07-23T09:50:36.018Z,25.21
2018-07-23T09:51:36.000Z,25.33
2018-07-23T09:52:36.080Z,25.31
2018-07-23T09:53:36.010Z,25.3
2018-07-23T09:54:35.950Z,25.33
2018-07-23T09:55:35.978Z,25.29
2018-07-23T09:56:36.039Z,25.25
2018-07-23T09:57:36.002Z,25.37
2018-07-23T09:58:36.130Z,25.3
2018-07-23T09:59:36.015Z,25.26
2018-07-23T10:00:36.055Z,25.26
2018-07-23T10:01:36.019Z,25.31
2018-07-23T10:02:36.959Z,25.19
2018-07-23T10:03:36.140Z,25.29
2018-07-23T10:04:36.090Z,25.37
2018-07-23T10:05:36.080Z,25.29
2018-07-23T10:06:35.999Z,25.3
2018-07-23T10:07:36.132Z,25.31
2018-07-23T10:08:36.034Z,25.25
2018-07-23T10:09:36.073Z,25.34
2018-07-23T10:10:36.103Z,25.29
2018-07-23T10:11:50.932Z,25.24
2018-07-23T10:12:36.064Z,25.3
2018-07-23T10:13:36.040Z,25.34
2018-07-23T10:14:35.973Z,25.25
2018-07-23T10:15:36.085Z,25.33
2018-07-23T10:16:36.030Z,25.33
2018-07-23T10:17:37.439Z,25.3
2018-07-23T10:18:36.032Z,25.3
2018-07-23T10:19:36.010Z,25.26
2018-07-23T10:20:36.080Z,25.24
2018-07-23T10:21:36.090Z,25.31
2018-07-23T10:22:36.068Z,25.31
2018-07-23T10:23:36.171Z,25.25
2018-07-23T10:24:36.121Z,25.3
2018-07-23T10:25:36.053Z,25.33
2018-07-23T10:26:36.224Z,25.29
2018-07-23T10:27:36.091Z,25.33
2018-07-23T10:28:36.095Z,25.36
2018-07-23T10:29:36.309Z,25.3
2018-07-23T10:30:36.191Z,25.33
2018-07-23T10:31:36.146Z,25.34
2018-07-23T10:32:36.167Z,25.29
2018-07-23T10:33:36.105Z,25.19
2018-07-23T10:34:36.185Z,25.26
2018-07-23T10:35:36.113Z,25.4
2018-07-23T10:36:36.119Z,25.26
2018-07-23T10:37:36.100Z,25.36
2018-07-23T10:38:36.035Z,25.31
2018-07-23T10:39:36.199Z,25.34
2018-07-23T10:40:36.102Z,25.26
2018-07-23T10:41:36.110Z,25.31
2018-07-23T10:42:36.163Z,25.24
2018-07-23T10:43:36.162Z,25.26
2018-07-23T10:44:36.109Z,25.24
2018-07-23T10:45:36.105Z,25.26
2018-07-23T10:46:36.069Z,25.36
2018-07-23T10:47:36.087Z,25.3
2018-07-23T10:48:36.148Z,25.34
2018-07-23T10:49:36.138Z,25.34
2018-07-23T10:50:36.100Z,25.31
2018-07-23T10:51:36.145Z,25.26
2018-07-23T10:52:36.115Z,25.36
2018-07-23T10:53:36.115Z,25.33
2018-07-23T10:54:36.131Z,25.26
2018-07-23T10:55:36.160Z,25.29
2018-07-23T11:00:54.558Z,25.3
2018-07-23T11:01:07.785Z,25.24
2018-07-23T11:02:08.655Z,25.24
2018-07-23T11:03:07.755Z,25.29
2018-07-23T11:04:07.866Z,25.26
2018-07-23T11:05:07.813Z,25.3
2018-07-23T11:06:07.738Z,25.3
2018-07-23T11:07:07.700Z,25.25
2018-07-23T11:08:07.759Z,25.26
2018-07-23T11:09:07.730Z,25.31
2018-07-23T11:10:07.771Z,25.29
2018-07-23T11:11:07.744Z,25.26
2018-07-23T11:12:07.885Z,25.24
2018-07-23T11:13:07.883Z,25.25
2018-07-23T11:14:07.797Z,25.34
2018-07-23T11:15:07.908Z,25.3
2018-07-23T11:16:07.733Z,25.36
2018-07-23T11:17:07.823Z,25.39
2018-07-23T11:18:07.898Z,25.3
2018-07-23T11:19:07.848Z,25.34
2018-07-23T11:20:07.793Z,25.29
2018-07-23T11:21:07.911Z,25.33
2018-07-23T11:22:07.816Z,25.36
2018-07-23T11:23:07.828Z,25.25
2018-07-23T11:24:07.959Z,25.36
2018-07-23T11:25:38.502Z,25.25
2018-07-23T11:26:07.943Z,25.4
2018-07-23T11:27:07.935Z,25.25
2018-07-23T11:28:07.985Z,25.24
2018-07-23T11:29:07.861Z,25.31
2018-07-23T11:30:07.852Z,25.36
2018-07-23T11:31:07.883Z,25.25
2018-07-23T11:32:07.996Z,25.36
2018-07-23T11:33:07.845Z,25.3
2018-07-23T11:34:07.956Z,25.4
2018-07-23T11:35:08.174Z,25.31
2018-07-23T11:36:07.874Z,25.29
2018-07-23T11:37:07.857Z,25.29
2018-07-23T11:38:07.784Z,25.26
2018-07-23T11:39:07.888Z,25.29
2018-07-23T11:40:08.893Z,25.29
2018-07-23T11:41:07.936Z,25.31
2018-07-23T11:42:07.915Z,25.31
2018-07-23T11:43:07.968Z,25.29
2018-07-23T11:44:07.881Z,25.34
2018-07-23T11:45:08.056Z,25.36
2018-07-23T11:46:07.895Z,25.3
2018-07-23T11:47:08.168Z,25.29
2018-07-23T11:48:07.870Z,25.29
2018-07-23T11:49:07.905Z,25.4
2018-07-23T11:50:08.017Z,25.31
2018-07-23T11:51:07.960Z,25.26
2018-07-23T11:52:14.356Z,25.25
2018-07-23T11:53:07.914Z,25.34
2018-07-23T11:54:07.925Z,25.33
2018-07-23T11:55:08.069Z,25.31
2018-07-23T11:56:07.889Z,25.24
2018-07-23T11:57:08.077Z,25.41
2018-07-23T11:58:08.094Z,25.34
2018-07-23T11:59:07.910Z,25.33
2018-07-23T12:00:08.668Z,25.39
2018-07-23T12:01:07.926Z,25.4
2018-07-23T12:02:08.032Z,25.37
2018-07-23T12:03:07.991Z,25.26
2018-07-23T12:04:10.408Z,25.31
2018-07-23T12:05:08.026Z,25.3
2018-07-23T12:06:07.849Z,25.34
2018-07-23T12:07:07.893Z,25.39
2018-07-23T12:08:07.945Z,25.24
2018-07-23T12:09:07.920Z,25.25
2018-07-23T12:10:07.947Z,25.25
2018-07-23T12:11:07.917Z,25.3
2018-07-23T12:12:07.862Z,25.34
2018-07-23T12:13:07.929Z,25.33
2018-07-23T12:14:07.881Z,25.39
2018-07-23T12:15:07.953Z,25.34
2018-07-23T12:16:07.989Z,25.31
2018-07-23T12:17:07.914Z,25.26
2018-07-23T12:18:08.549Z,25.33
2018-07-23T12:19:07.916Z,25.4
2018-07-23T12:20:07.894Z,25.34
2018-07-23T12:21:07.887Z,25.31
2018-07-23T12:22:07.996Z,25.31
2018-07-23T12:25:15.362Z,25.29
2018-07-23T12:25:27.747Z,25.29
2018-07-23T12:26:28.128Z,25.3
2018-07-23T12:27:27.790Z,25.34
2018-07-23T12:28:27.830Z,25.33
2018-07-23T12:29:27.810Z,25.34
2018-07-23T12:30:27.708Z,25.37
2018-07-23T12:31:27.754Z,25.31
2018-07-23T12:32:27.826Z,25.33
2018-07-23T12:33:27.843Z,25.36
2018-07-23T12:34:27.759Z,25.34
2018-07-23T12:37:34.887Z,25.34
2018-07-23T12:37:47.735Z,25.37
2018-07-23T12:38:47.862Z,25.25
2018-07-23T12:39:47.848Z,25.29
2018-07-23T12:40:47.671Z,25.31
2018-07-23T12:41:47.637Z,25.31
2018-07-23T12:42:47.760Z,25.37
2018-07-23T12:43:47.658Z,25.34
2018-07-23T12:44:47.693Z,25.25
2018-07-23T12:45:47.649Z,25.34
2018-07-23T12:46:47.875Z,25.29
2018-07-23T12:47:47.837Z,25.31
2018-07-23T12:48:47.718Z,25.36
2018-07-23T12:49:47.699Z,25.34
2018-07-23T12:50:47.639Z,25.34
2018-07-23T12:51:47.737Z,25.3
2018-07-23T12:52:47.817Z,25.31
2018-07-23T12:53:47.701Z,25.37
2018-07-23T12:54:47.804Z,25.3
2018-07-23T12:55:47.800Z,25.34
2018-07-23T12:56:47.766Z,25.31
2018-07-23T12:57:47.833Z,25.29
2018-07-23T12:58:47.789Z,25.3
2018-07-23T12:59:47.781Z,25.26
2018-07-23T13:00:47.778Z,25.33
2018-07-23T13:01:47.735Z,25.34
2018-07-23T13:02:47.796Z,25.4
2018-07-23T13:03:47.767Z,25.33
2018-07-23T13:04:47.908Z,25.34
2018-07-23T13:05:47.803Z,25.34
2018-07-23T13:06:47.750Z,25.31
2018-07-23T13:07:47.737Z,25.31
2018-07-23T13:08:47.800Z,25.36
2018-07-23T13:09:47.696Z,25.4
2018-07-23T13:10:47.769Z,25.33
2018-07-23T13:11:47.741Z,25.34
2018-07-23T13:12:47.821Z,25.26
2018-07-23T13:13:47.748Z,25.37